WXM80 ListenWXM80 Stop

You find our weather info also at:

UK Metoffice

WeatherCloud

Weather Underground

Northeastern Weather Network

AWEKAS

Citizen Weather Observer Program (CWOP)

HAMweather, WeatherForYou, PWS Weather


Weather Underground History page Text

Daily Summary for August 30, 2017 Units:  Both    English   Metric
« Previous Day
Next Day »
Daily Weekly Monthly Yearly Custom
  High: Low: Average:
Temperature: 80.7 °F /  27.1 °C 59.8 °F /  15.4 °C 68.3 °F /  20.2 °C
Dew Point: 63.1 °F /  17.3 °C 55.8 °F /  13.2 °C 59.5 °F /  15.3 °C
Humidity: 97 % 46 % 76 %
Wind Speed: 9.6 mph /  15.4 km/h - 3.3 mph /  5.3 km/h
Wind Gust: 18.4 mph /  29.6 km/h - -
Wind:- - SSE
Pressure: 29.95 in /  1014.1 hPa 29.86 in /  1011.1 hPa -
Precipitation: 0.33 in /  8.38 mm    
Historical Graphs
 
 
Tabular Data for August 30, 2017
Time Temperature Dew Point Pressure Wind Wind Speed Wind Gust Humidity Rainfall Rate (Hourly)
00:02 63.4 °F /  17.4 °C 62.2 °F /  16.8 °C 29.93 in /  1013.4 hPa East 6.7 mph /  10.8 km/h 10.4 mph /  16.7 km/h 96 % 0.06 in /  1.52 mm
00:07 63.4 °F /  17.4 °C 62.2 °F /  16.8 °C 29.94 in /  1013.8 hPa ENE 3.7 mph /  6 km/h 8.1 mph /  13 km/h 96 % 0.05 in /  1.27 mm
00:12 63.4 °F /  17.4 °C 62.2 °F /  16.8 °C 29.94 in /  1013.8 hPa ESE 3.5 mph /  5.6 km/h 6.9 mph /  11.1 km/h 96 % 0.06 in /  1.52 mm
00:18 63.2 °F /  17.3 °C 62.0 °F /  16.7 °C 29.95 in /  1014.1 hPa East 2.5 mph /  4 km/h 4.6 mph /  7.4 km/h 96 % 0.05 in /  1.27 mm
00:23 62.8 °F /  17.1 °C 61.6 °F /  16.4 °C 29.94 in /  1013.8 hPa East 2.8 mph /  4.5 km/h 4.6 mph /  7.4 km/h 96 % 0.05 in /  1.27 mm
00:28 62.6 °F /  17 °C 61.4 °F /  16.3 °C 29.94 in /  1013.8 hPa East 2.1 mph /  3.4 km/h 3.5 mph /  5.6 km/h 96 % 0.05 in /  1.27 mm
00:33 62.5 °F /  16.9 °C 61.3 °F /  16.3 °C 29.94 in /  1013.8 hPa East 1.8 mph /  2.9 km/h 3.5 mph /  5.6 km/h 96 % 0.05 in /  1.27 mm
00:38 62.5 °F /  16.9 °C 61.3 °F /  16.3 °C 29.94 in /  1013.8 hPa East 2.3 mph /  3.7 km/h 6.0 mph /  9.7 km/h 96 % 0.09 in /  2.29 mm
00:43 62.6 °F /  17 °C 61.7 °F /  16.5 °C 29.94 in /  1013.8 hPa ENE 4.0 mph /  6.4 km/h 8.0 mph /  12.9 km/h 97 % 0.13 in /  3.3 mm
00:48 62.6 °F /  17 °C 61.7 °F /  16.5 °C 29.94 in /  1013.8 hPa ENE 8.1 mph /  13 km/h 13.0 mph /  20.9 km/h 97 % 0.16 in /  4.06 mm
00:53 62.6 °F /  17 °C 61.7 °F /  16.5 °C 29.94 in /  1013.8 hPa North 6.3 mph /  10.1 km/h 11.5 mph /  18.5 km/h 97 % 0.17 in /  4.32 mm
00:58 62.5 °F /  16.9 °C 61.6 °F /  16.4 °C 29.94 in /  1013.8 hPa NNE 4.3 mph /  6.9 km/h 13.8 mph /  22.2 km/h 97 % 0.18 in /  4.57 mm
01:03 62.4 °F /  16.9 °C 61.2 °F /  16.2 °C 29.93 in /  1013.4 hPa NNE 5.5 mph /  8.9 km/h 11.5 mph /  18.5 km/h 96 % 0.19 in /  4.83 mm
01:08 62.3 °F /  16.8 °C 61.1 °F /  16.2 °C 29.92 in /  1013.1 hPa ENE 4.4 mph /  7.1 km/h 15.0 mph /  24.1 km/h 96 % 0.21 in /  5.33 mm
01:13 62.3 °F /  16.8 °C 61.1 °F /  16.2 °C 29.93 in /  1013.4 hPa ENE 4.7 mph /  7.6 km/h 11.5 mph /  18.5 km/h 96 % 0.21 in /  5.33 mm
01:18 62.2 °F /  16.8 °C 61.0 °F /  16.1 °C 29.94 in /  1013.8 hPa NE 5.1 mph /  8.2 km/h 10.4 mph /  16.7 km/h 96 % 0.22 in /  5.59 mm
01:23 62.1 °F /  16.7 °C 60.9 °F /  16.1 °C 29.93 in /  1013.4 hPa ENE 5.7 mph /  9.2 km/h 8.1 mph /  13 km/h 96 % 0.23 in /  5.84 mm
01:28 62.0 °F /  16.7 °C 60.8 °F /  16 °C 29.92 in /  1013.1 hPa NE 4.8 mph /  7.7 km/h 10.4 mph /  16.7 km/h 96 % 0.22 in /  5.59 mm
01:33 62.0 °F /  16.7 °C 60.8 °F /  16 °C 29.92 in /  1013.1 hPa NNE 3.1 mph /  5 km/h 11.5 mph /  18.5 km/h 96 % 0.22 in /  5.59 mm
01:38 61.9 °F /  16.6 °C 61.0 °F /  16.1 °C 29.93 in /  1013.4 hPa NE 5.3 mph /  8.5 km/h 11.5 mph /  18.5 km/h 97 % 0.17 in /  4.32 mm
01:43 61.9 °F /  16.6 °C 61.0 °F /  16.1 °C 29.92 in /  1013.1 hPa NNE 5.7 mph /  9.2 km/h 9.2 mph /  14.8 km/h 97 % 0.15 in /  3.81 mm
01:48 61.8 °F /  16.6 °C 60.9 °F /  16.1 °C 29.91 in /  1012.8 hPa ENE 7.4 mph /  11.9 km/h 12.0 mph /  19.3 km/h 97 % 0.12 in /  3.05 mm
01:53 61.7 °F /  16.5 °C 60.5 °F /  15.8 °C 29.89 in /  1012.1 hPa NE 5.0 mph /  8 km/h 6.9 mph /  11.1 km/h 96 % 0.12 in /  3.05 mm
01:54 61.7 °F /  16.5 °C 60.5 °F /  15.8 °C 29.89 in /  1012.1 hPa NNE 5.0 mph /  8 km/h 9.2 mph /  14.8 km/h 96 % 0.11 in /  2.79 mm
01:59 61.7 °F /  16.5 °C 60.5 °F /  15.8 °C 29.92 in /  1013.1 hPa North 5.8 mph /  9.3 km/h 16.0 mph /  25.7 km/h 96 % 0.12 in /  3.05 mm
02:04 61.6 °F /  16.4 °C 60.4 °F /  15.8 °C 29.91 in /  1012.8 hPa NE 8.9 mph /  14.3 km/h 18.4 mph /  29.6 km/h 96 % 0.12 in /  3.05 mm
02:09 61.5 °F /  16.4 °C 60.6 °F /  15.9 °C 29.90 in /  1012.4 hPa North 7.5 mph /  12.1 km/h 15.0 mph /  24.1 km/h 97 % 0.10 in /  2.54 mm
02:14 61.6 °F /  16.4 °C 60.7 °F /  15.9 °C 29.89 in /  1012.1 hPa ENE 7.5 mph /  12.1 km/h 11.0 mph /  17.7 km/h 97 % 0.10 in /  2.54 mm
02:19 61.5 °F /  16.4 °C 60.6 °F /  15.9 °C 29.90 in /  1012.4 hPa NE 5.5 mph /  8.9 km/h 12.7 mph /  20.4 km/h 97 % 0.09 in /  2.29 mm
02:24 61.5 °F /  16.4 °C 60.6 °F /  15.9 °C 29.90 in /  1012.4 hPa NNE 4.6 mph /  7.4 km/h 13.0 mph /  20.9 km/h 97 % 0.08 in /  2.03 mm
02:29 61.4 °F /  16.3 °C 60.5 °F /  15.8 °C 29.90 in /  1012.4 hPa NNE 8.5 mph /  13.7 km/h 13.8 mph /  22.2 km/h 97 % 0.08 in /  2.03 mm
02:34 61.3 °F /  16.3 °C 60.4 °F /  15.8 °C 29.89 in /  1012.1 hPa East 4.3 mph /  6.9 km/h 9.2 mph /  14.8 km/h 97 % 0.08 in /  2.03 mm
02:39 61.2 °F /  16.2 °C 60.3 °F /  15.7 °C 29.88 in /  1011.7 hPa NE 8.0 mph /  12.9 km/h 13.8 mph /  22.2 km/h 97 % 0.07 in /  1.78 mm
02:44 61.2 °F /  16.2 °C 60.3 °F /  15.7 °C 29.87 in /  1011.4 hPa East 8.2 mph /  13.2 km/h 16.1 mph /  25.9 km/h 97 % 0.06 in /  1.52 mm
02:49 61.1 °F /  16.2 °C 60.0 °F /  15.6 °C 29.88 in /  1011.7 hPa NNE 5.7 mph /  9.2 km/h 17.3 mph /  27.8 km/h 96 % 0.05 in /  1.27 mm
02:54 61.1 °F /  16.2 °C 60.0 °F /  15.6 °C 29.88 in /  1011.7 hPa East 9.0 mph /  14.5 km/h 15.0 mph /  24.1 km/h 96 % 0.04 in /  1.02 mm
02:59 61.1 °F /  16.2 °C 60.0 °F /  15.6 °C 29.89 in /  1012.1 hPa NNE 7.1 mph /  11.4 km/h 10.4 mph /  16.7 km/h 96 % 0.03 in /  0.76 mm
03:04 61.1 °F /  16.2 °C 60.0 °F /  15.6 °C 29.88 in /  1011.7 hPa NE 4.6 mph /  7.4 km/h 8.1 mph /  13 km/h 96 % 0.02 in /  0.51 mm
03:09 61.1 °F /  16.2 °C 60.0 °F /  15.6 °C 29.88 in /  1011.7 hPa ESE 4.1 mph /  6.6 km/h 10.0 mph /  16.1 km/h 96 % 0.02 in /  0.51 mm
03:14 61.1 °F /  16.2 °C 60.0 °F /  15.6 °C 29.89 in /  1012.1 hPa NNE 5.4 mph /  8.7 km/h 11.5 mph /  18.5 km/h 96 % 0.01 in /  0.25 mm
03:19 61.1 °F /  16.2 °C 60.0 °F /  15.6 °C 29.89 in /  1012.1 hPa ENE 5.6 mph /  9 km/h 11.5 mph /  18.5 km/h 96 % 0.01 in /  0.25 mm
03:24 61.0 °F /  16.1 °C 59.9 °F /  15.5 °C 29.88 in /  1011.7 hPa NE 4.2 mph /  6.8 km/h 9.0 mph /  14.5 km/h 96 % 0.01 in /  0.25 mm
03:29 61.0 °F /  16.1 °C 59.9 °F /  15.5 °C 29.88 in /  1011.7 hPa NNE 5.7 mph /  9.2 km/h 7.0 mph /  11.3 km/h 96 % 0.00 in /  0 mm
03:34 61.0 °F /  16.1 °C 59.9 °F /  15.5 °C 29.88 in /  1011.7 hPa ENE 7.1 mph /  11.4 km/h 11.0 mph /  17.7 km/h 96 % 0.00 in /  0 mm
03:40 60.9 °F /  16.1 °C 59.8 °F /  15.4 °C 29.88 in /  1011.7 hPa ENE 6.4 mph /  10.3 km/h 16.1 mph /  25.9 km/h 96 % 0.00 in /  0 mm
03:45 60.9 °F /  16.1 °C 59.8 °F /  15.4 °C 29.88 in /  1011.7 hPa NE 4.7 mph /  7.6 km/h 9.2 mph /  14.8 km/h 96 % 0.00 in /  0 mm
03:50 60.8 °F /  16 °C 59.7 °F /  15.4 °C 29.88 in /  1011.7 hPa NNE 5.8 mph /  9.3 km/h 12.7 mph /  20.4 km/h 96 % 0.00 in /  0 mm
03:55 60.8 °F /  16 °C 59.7 °F /  15.4 °C 29.88 in /  1011.7 hPa NE 5.4 mph /  8.7 km/h 8.1 mph /  13 km/h 96 % 0.00 in /  0 mm
04:00 60.7 °F /  15.9 °C 59.6 °F /  15.3 °C 29.88 in /  1011.7 hPa NE 4.4 mph /  7.1 km/h 9.2 mph /  14.8 km/h 96 % 0.00 in /  0 mm
04:05 60.6 °F /  15.9 °C 59.5 °F /  15.3 °C 29.88 in /  1011.7 hPa North 7.7 mph /  12.4 km/h 12.7 mph /  20.4 km/h 96 % 0.00 in /  0 mm
04:10 60.5 °F /  15.8 °C 59.4 °F /  15.2 °C 29.88 in /  1011.7 hPa NNE 4.0 mph /  6.4 km/h 10.0 mph /  16.1 km/h 96 % 0.00 in /  0 mm
04:15 60.5 °F /  15.8 °C 59.4 °F /  15.2 °C 29.88 in /  1011.7 hPa ENE 7.6 mph /  12.2 km/h 12.7 mph /  20.4 km/h 96 % 0.00 in /  0 mm
04:20 60.4 °F /  15.8 °C 59.3 °F /  15.2 °C 29.88 in /  1011.7 hPa North 7.1 mph /  11.4 km/h 11.5 mph /  18.5 km/h 96 % 0.00 in /  0 mm
04:25 60.4 °F /  15.8 °C 59.3 °F /  15.2 °C 29.89 in /  1012.1 hPa North 8.1 mph /  13 km/h 12.7 mph /  20.4 km/h 96 % 0.00 in /  0 mm
04:30 60.3 °F /  15.7 °C 58.9 °F /  14.9 °C 29.89 in /  1012.1 hPa NE 9.2 mph /  14.8 km/h 16.1 mph /  25.9 km/h 95 % 0.00 in /  0 mm
04:35 60.4 °F /  15.8 °C 59.0 °F /  15 °C 29.89 in /  1012.1 hPa North 7.0 mph /  11.3 km/h 15.0 mph /  24.1 km/h 95 % 0.00 in /  0 mm
04:40 60.2 °F /  15.7 °C 58.8 °F /  14.9 °C 29.89 in /  1012.1 hPa NNE 5.7 mph /  9.2 km/h 10.0 mph /  16.1 km/h 95 % 0.00 in /  0 mm
04:45 60.2 °F /  15.7 °C 58.8 °F /  14.9 °C 29.88 in /  1011.7 hPa North 8.3 mph /  13.4 km/h 13.8 mph /  22.2 km/h 95 % 0.00 in /  0 mm
04:50 60.1 °F /  15.6 °C 58.7 °F /  14.8 °C 29.88 in /  1011.7 hPa NNE 6.0 mph /  9.7 km/h 12.7 mph /  20.4 km/h 95 % 0.00 in /  0 mm
04:55 60.0 °F /  15.6 °C 58.6 °F /  14.8 °C 29.88 in /  1011.7 hPa ENE 6.2 mph /  10 km/h 10.4 mph /  16.7 km/h 95 % 0.00 in /  0 mm
05:00 59.9 °F /  15.5 °C 58.5 °F /  14.7 °C 29.88 in /  1011.7 hPa ENE 4.5 mph /  7.2 km/h 9.2 mph /  14.8 km/h 95 % 0.00 in /  0 mm
05:01 59.9 °F /  15.5 °C 58.5 °F /  14.7 °C 29.88 in /  1011.7 hPa East 5.2 mph /  8.4 km/h 9.2 mph /  14.8 km/h 95 % 0.00 in /  0 mm
05:06 59.9 °F /  15.5 °C 58.5 °F /  14.7 °C 29.88 in /  1011.7 hPa NNE 5.6 mph /  9 km/h 11.5 mph /  18.5 km/h 95 % 0.00 in /  0 mm
05:11 59.8 °F /  15.4 °C 58.4 °F /  14.7 °C 29.88 in /  1011.7 hPa NNE 6.0 mph /  9.7 km/h 16.1 mph /  25.9 km/h 95 % 0.00 in /  0 mm
05:16 59.8 °F /  15.4 °C 58.4 °F /  14.7 °C 29.88 in /  1011.7 hPa NNE 6.8 mph /  10.9 km/h 10.4 mph /  16.7 km/h 95 % 0.00 in /  0 mm
05:21 59.8 °F /  15.4 °C 58.4 °F /  14.7 °C 29.88 in /  1011.7 hPa NNE 6.6 mph /  10.6 km/h 10.4 mph /  16.7 km/h 95 % 0.00 in /  0 mm
05:26 59.9 °F /  15.5 °C 58.5 °F /  14.7 °C 29.88 in /  1011.7 hPa NNE 5.9 mph /  9.5 km/h 11.5 mph /  18.5 km/h 95 % 0.00 in /  0 mm
05:28 59.9 °F /  15.5 °C 58.5 °F /  14.7 °C 29.88 in /  1011.7 hPa NNE 5.1 mph /  8.2 km/h 12.7 mph /  20.4 km/h 95 % 0.00 in /  0 mm
05:33 59.9 °F /  15.5 °C 58.5 °F /  14.7 °C 29.88 in /  1011.7 hPa NNE 7.5 mph /  12.1 km/h 11.5 mph /  18.5 km/h 95 % 0.00 in /  0 mm
05:38 59.9 °F /  15.5 °C 58.2 °F /  14.6 °C 29.88 in /  1011.7 hPa NE 4.9 mph /  7.9 km/h 8.0 mph /  12.9 km/h 94 % 0.00 in /  0 mm
05:43 59.9 °F /  15.5 °C 58.2 °F /  14.6 °C 29.88 in /  1011.7 hPa North 7.7 mph /  12.4 km/h 11.5 mph /  18.5 km/h 94 % 0.00 in /  0 mm
05:48 59.9 °F /  15.5 °C 58.2 °F /  14.6 °C 29.88 in /  1011.7 hPa NNE 4.1 mph /  6.6 km/h 9.0 mph /  14.5 km/h 94 % 0.00 in /  0 mm
05:53 59.9 °F /  15.5 °C 58.2 °F /  14.6 °C 29.88 in /  1011.7 hPa NNE 4.3 mph /  6.9 km/h 9.2 mph /  14.8 km/h 94 % 0.00 in /  0 mm
05:58 59.9 °F /  15.5 °C 58.2 °F /  14.6 °C 29.88 in /  1011.7 hPa NNE 5.6 mph /  9 km/h 10.4 mph /  16.7 km/h 94 % 0.00 in /  0 mm
06:03 60.0 °F /  15.6 °C 58.3 °F /  14.6 °C 29.88 in /  1011.7 hPa NNE 7.3 mph /  11.7 km/h 11.5 mph /  18.5 km/h 94 % 0.00 in /  0 mm
06:08 60.1 °F /  15.6 °C 58.4 °F /  14.7 °C 29.88 in /  1011.7 hPa NNW 4.1 mph /  6.6 km/h 6.9 mph /  11.1 km/h 94 % 0.00 in /  0 mm
06:13 60.2 °F /  15.7 °C 58.5 °F /  14.7 °C 29.88 in /  1011.7 hPa North 7.2 mph /  11.6 km/h 10.0 mph /  16.1 km/h 94 % 0.00 in /  0 mm
06:18 60.2 °F /  15.7 °C 58.5 °F /  14.7 °C 29.88 in /  1011.7 hPa NNE 6.6 mph /  10.6 km/h 10.4 mph /  16.7 km/h 94 % 0.00 in /  0 mm
06:23 60.2 °F /  15.7 °C 58.5 °F /  14.7 °C 29.88 in /  1011.7 hPa NNE 7.4 mph /  11.9 km/h 10.4 mph /  16.7 km/h 94 % 0.00 in /  0 mm
06:28 60.3 °F /  15.7 °C 58.6 °F /  14.8 °C 29.88 in /  1011.7 hPa NNE 5.5 mph /  8.9 km/h 8.0 mph /  12.9 km/h 94 % 0.00 in /  0 mm
06:33 60.3 °F /  15.7 °C 58.6 °F /  14.8 °C 29.88 in /  1011.7 hPa NE 4.9 mph /  7.9 km/h 10.4 mph /  16.7 km/h 94 % 0.00 in /  0 mm
06:38 60.3 °F /  15.7 °C 58.6 °F /  14.8 °C 29.88 in /  1011.7 hPa NNE 6.4 mph /  10.3 km/h 12.7 mph /  20.4 km/h 94 % 0.00 in /  0 mm
06:43 60.4 °F /  15.8 °C 58.7 °F /  14.8 °C 29.89 in /  1012.1 hPa NNE 6.2 mph /  10 km/h 11.5 mph /  18.5 km/h 94 % 0.00 in /  0 mm
06:48 60.5 °F /  15.8 °C 58.8 °F /  14.9 °C 29.89 in /  1012.1 hPa NNE 5.6 mph /  9 km/h 8.1 mph /  13 km/h 94 % 0.00 in /  0 mm
06:53 60.5 °F /  15.8 °C 58.5 °F /  14.7 °C 29.89 in /  1012.1 hPa NNE 8.0 mph /  12.9 km/h 11.5 mph /  18.5 km/h 93 % 0.00 in /  0 mm
06:58 60.6 °F /  15.9 °C 58.6 °F /  14.8 °C 29.90 in /  1012.4 hPa NNE 9.6 mph /  15.4 km/h 11.5 mph /  18.5 km/h 93 % 0.00 in /  0 mm
07:03 60.7 °F /  15.9 °C 58.7 °F /  14.8 °C 29.90 in /  1012.4 hPa North 8.5 mph /  13.7 km/h 11.5 mph /  18.5 km/h 93 % 0.00 in /  0 mm
07:08 60.7 °F /  15.9 °C 58.7 °F /  14.8 °C 29.90 in /  1012.4 hPa North 5.8 mph /  9.3 km/h 6.9 mph /  11.1 km/h 93 % 0.00 in /  0 mm
07:14 60.7 °F /  15.9 °C 58.7 °F /  14.8 °C 29.90 in /  1012.4 hPa NNE 6.7 mph /  10.8 km/h 10.4 mph /  16.7 km/h 93 % 0.00 in /  0 mm
07:19 60.8 °F /  16 °C 58.8 °F /  14.9 °C 29.90 in /  1012.4 hPa NNE 6.8 mph /  10.9 km/h 12.0 mph /  19.3 km/h 93 % 0.00 in /  0 mm
07:24 60.8 °F /  16 °C 58.8 °F /  14.9 °C 29.90 in /  1012.4 hPa North 5.5 mph /  8.9 km/h 7.0 mph /  11.3 km/h 93 % 0.00 in /  0 mm
07:29 60.9 °F /  16.1 °C 58.9 °F /  14.9 °C 29.90 in /  1012.4 hPa North 4.5 mph /  7.2 km/h 9.2 mph /  14.8 km/h 93 % 0.00 in /  0 mm
07:34 60.9 °F /  16.1 °C 58.9 °F /  14.9 °C 29.90 in /  1012.4 hPa NNE 4.7 mph /  7.6 km/h 8.1 mph /  13 km/h 93 % 0.00 in /  0 mm
07:39 61.0 °F /  16.1 °C 59.0 °F /  15 °C 29.91 in /  1012.8 hPa NE 6.1 mph /  9.8 km/h 11.5 mph /  18.5 km/h 93 % 0.00 in /  0 mm
07:44 61.0 °F /  16.1 °C 59.0 °F /  15 °C 29.91 in /  1012.8 hPa NNE 5.4 mph /  8.7 km/h 9.2 mph /  14.8 km/h 93 % 0.00 in /  0 mm
07:49 61.1 °F /  16.2 °C 59.1 °F /  15.1 °C 29.91 in /  1012.8 hPa North 7.2 mph /  11.6 km/h 11.5 mph /  18.5 km/h 93 % 0.00 in /  0 mm
07:54 61.1 °F /  16.2 °C 58.8 °F /  14.9 °C 29.91 in /  1012.8 hPa North 3.8 mph /  6.1 km/h 11.5 mph /  18.5 km/h 92 % 0.00 in /  0 mm
07:59 61.2 °F /  16.2 °C 59.2 °F /  15.1 °C 29.91 in /  1012.8 hPa North 7.0 mph /  11.3 km/h 11.5 mph /  18.5 km/h 93 % 0.00 in /  0 mm
08:04 61.2 °F /  16.2 °C 58.9 °F /  14.9 °C 29.91 in /  1012.8 hPa NE 4.6 mph /  7.4 km/h 10.4 mph /  16.7 km/h 92 % 0.00 in /  0 mm
08:09 61.3 °F /  16.3 °C 59.0 °F /  15 °C 29.91 in /  1012.8 hPa North 7.4 mph /  11.9 km/h 11.5 mph /  18.5 km/h 92 % 0.00 in /  0 mm
08:14 61.4 °F /  16.3 °C 59.1 °F /  15.1 °C 29.91 in /  1012.8 hPa North 4.2 mph /  6.8 km/h 10.4 mph /  16.7 km/h 92 % 0.00 in /  0 mm
08:19 61.7 °F /  16.5 °C 59.4 °F /  15.2 °C 29.91 in /  1012.8 hPa North 6.8 mph /  10.9 km/h 10.4 mph /  16.7 km/h 92 % 0.00 in /  0 mm
08:24 61.9 °F /  16.6 °C 59.2 °F /  15.1 °C 29.91 in /  1012.8 hPa NNW 4.0 mph /  6.4 km/h 8.1 mph /  13 km/h 91 % 0.00 in /  0 mm
08:29 62.1 °F /  16.7 °C 59.4 °F /  15.2 °C 29.91 in /  1012.8 hPa NNE 5.4 mph /  8.7 km/h 9.2 mph /  14.8 km/h 91 % 0.00 in /  0 mm
08:34 62.3 °F /  16.8 °C 59.6 °F /  15.3 °C 29.91 in /  1012.8 hPa NNE 6.6 mph /  10.6 km/h 10.0 mph /  16.1 km/h 91 % 0.00 in /  0 mm
08:39 62.5 °F /  16.9 °C 59.5 °F /  15.3 °C 29.91 in /  1012.8 hPa East 6.7 mph /  10.8 km/h 11.5 mph /  18.5 km/h 90 % 0.00 in /  0 mm
08:44 62.6 °F /  17 °C 59.6 °F /  15.3 °C 29.91 in /  1012.8 hPa NNE 7.2 mph /  11.6 km/h 11.5 mph /  18.5 km/h 90 % 0.00 in /  0 mm
08:49 62.9 °F /  17.2 °C 59.9 °F /  15.5 °C 29.91 in /  1012.8 hPa NNE 7.0 mph /  11.3 km/h 10.4 mph /  16.7 km/h 90 % 0.00 in /  0 mm
08:54 63.0 °F /  17.2 °C 59.7 °F /  15.4 °C 29.91 in /  1012.8 hPa North 8.2 mph /  13.2 km/h 12.7 mph /  20.4 km/h 89 % 0.00 in /  0 mm
08:59 63.0 °F /  17.2 °C 59.4 °F /  15.2 °C 29.91 in /  1012.8 hPa North 6.5 mph /  10.5 km/h 11.5 mph /  18.5 km/h 88 % 0.00 in /  0 mm
09:05 63.1 °F /  17.3 °C 59.5 °F /  15.3 °C 29.91 in /  1012.8 hPa NE 4.1 mph /  6.6 km/h 5.8 mph /  9.3 km/h 88 % 0.00 in /  0 mm
09:10 63.2 °F /  17.3 °C 59.6 °F /  15.3 °C 29.90 in /  1012.4 hPa North 5.5 mph /  8.9 km/h 8.1 mph /  13 km/h 88 % 0.00 in /  0 mm
09:15 63.2 °F /  17.3 °C 59.3 °F /  15.2 °C 29.90 in /  1012.4 hPa NE 6.5 mph /  10.5 km/h 11.5 mph /  18.5 km/h 87 % 0.00 in /  0 mm
09:20 63.3 °F /  17.4 °C 59.4 °F /  15.2 °C 29.91 in /  1012.8 hPa NNE 4.1 mph /  6.6 km/h 9.2 mph /  14.8 km/h 87 % 0.00 in /  0 mm
09:25 63.4 °F /  17.4 °C 59.5 °F /  15.3 °C 29.91 in /  1012.8 hPa NNW 5.5 mph /  8.9 km/h 7.0 mph /  11.3 km/h 87 % 0.00 in /  0 mm
09:30 63.6 °F /  17.6 °C 59.7 °F /  15.4 °C 29.91 in /  1012.8 hPa NNW 5.8 mph /  9.3 km/h 6.9 mph /  11.1 km/h 87 % 0.00 in /  0 mm
09:35 63.8 °F /  17.7 °C 59.5 °F /  15.3 °C 29.91 in /  1012.8 hPa NNE 4.9 mph /  7.9 km/h 8.1 mph /  13 km/h 86 % 0.00 in /  0 mm
09:40 63.9 °F /  17.7 °C 59.6 °F /  15.3 °C 29.91 in /  1012.8 hPa NNW 5.7 mph /  9.2 km/h 11.5 mph /  18.5 km/h 86 % 0.00 in /  0 mm
09:45 64.1 °F /  17.8 °C 59.5 °F /  15.3 °C 29.91 in /  1012.8 hPa North 5.8 mph /  9.3 km/h 12.0 mph /  19.3 km/h 85 % 0.00 in /  0 mm
09:50 64.6 °F /  18.1 °C 59.3 °F /  15.2 °C 29.91 in /  1012.8 hPa NNE 4.7 mph /  7.6 km/h 9.2 mph /  14.8 km/h 83 % 0.00 in /  0 mm
09:55 65.3 °F /  18.5 °C 60.0 °F /  15.6 °C 29.91 in /  1012.8 hPa North 5.4 mph /  8.7 km/h 8.1 mph /  13 km/h 83 % 0.00 in /  0 mm
10:00 65.9 °F /  18.8 °C 60.2 °F /  15.7 °C 29.91 in /  1012.8 hPa NNE 4.2 mph /  6.8 km/h 7.0 mph /  11.3 km/h 82 % 0.00 in /  0 mm
10:05 66.4 °F /  19.1 °C 59.7 °F /  15.4 °C 29.91 in /  1012.8 hPa North 3.7 mph /  6 km/h 6.0 mph /  9.7 km/h 79 % 0.00 in /  0 mm
10:11 66.7 °F /  19.3 °C 60.0 °F /  15.6 °C 29.91 in /  1012.8 hPa NNE 5.0 mph /  8 km/h 8.0 mph /  12.9 km/h 79 % 0.00 in /  0 mm
10:16 66.8 °F /  19.3 °C 59.7 °F /  15.4 °C 29.91 in /  1012.8 hPa NNE 2.0 mph /  3.2 km/h 9.0 mph /  14.5 km/h 78 % 0.00 in /  0 mm
10:21 66.8 °F /  19.3 °C 59.0 °F /  15 °C 29.91 in /  1012.8 hPa NNE 5.0 mph /  8 km/h 12.0 mph /  19.3 km/h 76 % 0.00 in /  0 mm
10:26 66.7 °F /  19.3 °C 58.5 °F /  14.7 °C 29.91 in /  1012.8 hPa NNE 6.0 mph /  9.7 km/h 12.0 mph /  19.3 km/h 75 % 0.00 in /  0 mm
10:31 66.6 °F /  19.2 °C 58.8 °F /  14.9 °C 29.90 in /  1012.4 hPa North 2.0 mph /  3.2 km/h 7.0 mph /  11.3 km/h 76 % 0.00 in /  0 mm
10:36 66.7 °F /  19.3 °C 58.9 °F /  14.9 °C 29.90 in /  1012.4 hPa North 7.0 mph /  11.3 km/h 13.0 mph /  20.9 km/h 76 % 0.00 in /  0 mm
10:41 67.0 °F /  19.4 °C 59.2 °F /  15.1 °C 29.90 in /  1012.4 hPa NNE 6.0 mph /  9.7 km/h 12.0 mph /  19.3 km/h 76 % 0.00 in /  0 mm
10:46 67.2 °F /  19.6 °C 59.0 °F /  15 °C 29.91 in /  1012.8 hPa NNE 3.0 mph /  4.8 km/h 12.0 mph /  19.3 km/h 75 % 0.00 in /  0 mm
10:51 67.4 °F /  19.7 °C 59.9 °F /  15.5 °C 29.91 in /  1012.8 hPa NNE 3.0 mph /  4.8 km/h 8.0 mph /  12.9 km/h 77 % 0.00 in /  0 mm
10:56 67.8 °F /  19.9 °C 59.2 °F /  15.1 °C 29.91 in /  1012.8 hPa North 3.0 mph /  4.8 km/h 12.0 mph /  19.3 km/h 74 % 0.00 in /  0 mm
11:01 68.4 °F /  20.2 °C 59.8 °F /  15.4 °C 29.91 in /  1012.8 hPa NNE 4.0 mph /  6.4 km/h 9.2 mph /  14.8 km/h 74 % 0.00 in /  0 mm
11:06 69.2 °F /  20.7 °C 61.3 °F /  16.3 °C 29.91 in /  1012.8 hPa North 2.4 mph /  3.9 km/h 4.0 mph /  6.4 km/h 76 % 0.00 in /  0 mm
11:10 69.9 °F /  21.1 °C 60.8 °F /  16 °C 29.91 in /  1012.8 hPa NNE 4.8 mph /  7.7 km/h 6.9 mph /  11.1 km/h 73 % 0.00 in /  0 mm
11:15 70.9 °F /  21.6 °C 61.4 °F /  16.3 °C 29.91 in /  1012.8 hPa North 2.2 mph /  3.5 km/h 4.6 mph /  7.4 km/h 72 % 0.00 in /  0 mm
11:20 71.8 °F /  22.1 °C 61.5 °F /  16.4 °C 29.91 in /  1012.8 hPa NNW 1.7 mph /  2.7 km/h 4.6 mph /  7.4 km/h 70 % 0.00 in /  0 mm
11:25 72.5 °F /  22.5 °C 61.3 °F /  16.3 °C 29.91 in /  1012.8 hPa NNE 2.6 mph /  4.2 km/h 3.5 mph /  5.6 km/h 68 % 0.00 in /  0 mm
11:30 73.2 °F /  22.9 °C 61.6 °F /  16.4 °C 29.91 in /  1012.8 hPa NNW 1.2 mph /  1.9 km/h 4.0 mph /  6.4 km/h 67 % 0.00 in /  0 mm
11:35 73.8 °F /  23.2 °C 61.7 °F /  16.5 °C 29.91 in /  1012.8 hPa NNE 1.0 mph /  1.6 km/h 2.3 mph /  3.7 km/h 66 % 0.00 in /  0 mm
11:40 74.4 °F /  23.6 °C 61.0 °F /  16.1 °C 29.91 in /  1012.8 hPa NNE 2.9 mph /  4.7 km/h 5.8 mph /  9.3 km/h 63 % 0.00 in /  0 mm
11:45 74.8 °F /  23.8 °C 62.2 °F /  16.8 °C 29.91 in /  1012.8 hPa NNW 0.9 mph /  1.4 km/h 2.3 mph /  3.7 km/h 65 % 0.00 in /  0 mm
11:50 75.3 °F /  24.1 °C 62.3 °F /  16.8 °C 29.91 in /  1012.8 hPa North 0.9 mph /  1.4 km/h 2.3 mph /  3.7 km/h 64 % 0.00 in /  0 mm
11:55 75.8 °F /  24.3 °C 61.8 °F /  16.6 °C 29.91 in /  1012.8 hPa NNE 1.2 mph /  1.9 km/h 3.5 mph /  5.6 km/h 62 % 0.00 in /  0 mm
12:00 76.2 °F /  24.6 °C 62.7 °F /  17.1 °C 29.91 in /  1012.8 hPa WNW 0.2 mph /  0.3 km/h 1.2 mph /  1.9 km/h 63 % 0.00 in /  0 mm
12:10 76.6 °F /  24.8 °C 61.2 °F /  16.2 °C 29.91 in /  1012.8 hPa WNW 2.2 mph /  3.5 km/h 5.8 mph /  9.3 km/h 59 % 0.00 in /  0 mm
12:15 76.8 °F /  24.9 °C 61.9 °F /  16.6 °C 29.91 in /  1012.8 hPa NNE 1.0 mph /  1.6 km/h 3.5 mph /  5.6 km/h 60 % 0.00 in /  0 mm
12:20 76.8 °F /  24.9 °C 62.3 °F /  16.8 °C 29.91 in /  1012.8 hPa NNE 0.3 mph /  0.5 km/h 3.5 mph /  5.6 km/h 61 % 0.00 in /  0 mm
12:26 77.1 °F /  25.1 °C 61.2 °F /  16.2 °C 29.90 in /  1012.4 hPa North 2.0 mph /  3.2 km/h 5.0 mph /  8 km/h 58 % 0.00 in /  0 mm
12:30 77.3 °F /  25.2 °C 61.4 °F /  16.3 °C 29.90 in /  1012.4 hPa NNE 0.2 mph /  0.3 km/h 3.5 mph /  5.6 km/h 58 % 0.00 in /  0 mm
12:36 77.6 °F /  25.3 °C 63.1 °F /  17.3 °C 29.90 in /  1012.4 hPa Calm   1.0 mph /  1.6 km/h 61 % 0.00 in /  0 mm
12:41 78.1 °F /  25.6 °C 63.1 °F /  17.3 °C 29.90 in /  1012.4 hPa NNE 0.3 mph /  0.5 km/h 3.5 mph /  5.6 km/h 60 % 0.00 in /  0 mm
12:46 78.2 °F /  25.7 °C 62.2 °F /  16.8 °C 29.90 in /  1012.4 hPa North 1.0 mph /  1.6 km/h 6.0 mph /  9.7 km/h 58 % 0.00 in /  0 mm
12:51 78.4 °F /  25.8 °C 62.4 °F /  16.9 °C 29.90 in /  1012.4 hPa NNE 2.2 mph /  3.5 km/h 3.5 mph /  5.6 km/h 58 % 0.00 in /  0 mm
12:56 78.5 °F /  25.8 °C 61.0 °F /  16.1 °C 29.90 in /  1012.4 hPa NNE 1.5 mph /  2.4 km/h 4.6 mph /  7.4 km/h 55 % 0.00 in /  0 mm
13:01 78.5 °F /  25.8 °C 60.5 °F /  15.8 °C 29.90 in /  1012.4 hPa NNE 3.7 mph /  6 km/h 5.8 mph /  9.3 km/h 54 % 0.00 in /  0 mm
13:06 78.6 °F /  25.9 °C 61.1 °F /  16.2 °C 29.90 in /  1012.4 hPa North 2.2 mph /  3.5 km/h 4.6 mph /  7.4 km/h 55 % 0.00 in /  0 mm
13:11 78.8 °F /  26 °C 60.2 °F /  15.7 °C 29.90 in /  1012.4 hPa NNW 0.6 mph /  1 km/h 2.3 mph /  3.7 km/h 53 % 0.00 in /  0 mm
13:16 78.8 °F /  26 °C 59.1 °F /  15.1 °C 29.90 in /  1012.4 hPa WNW 2.3 mph /  3.7 km/h 3.5 mph /  5.6 km/h 51 % 0.00 in /  0 mm
13:21 79.0 °F /  26.1 °C 58.8 °F /  14.9 °C 29.90 in /  1012.4 hPa WNW 1.9 mph /  3.1 km/h 6.0 mph /  9.7 km/h 50 % 0.00 in /  0 mm
13:26 79.1 °F /  26.2 °C 59.4 °F /  15.2 °C 29.89 in /  1012.1 hPa WNW 1.3 mph /  2.1 km/h 6.0 mph /  9.7 km/h 51 % 0.00 in /  0 mm
13:31 79.1 °F /  26.2 °C 62.1 °F /  16.7 °C 29.89 in /  1012.1 hPa NW 0.8 mph /  1.3 km/h 3.5 mph /  5.6 km/h 56 % 0.00 in /  0 mm
13:36 79.2 °F /  26.2 °C 60.6 °F /  15.9 °C 29.90 in /  1012.4 hPa NNW 1.2 mph /  1.9 km/h 3.5 mph /  5.6 km/h 53 % 0.00 in /  0 mm
13:41 79.2 °F /  26.2 °C 59.5 °F /  15.3 °C 29.89 in /  1012.1 hPa WSW 0.2 mph /  0.3 km/h 3.5 mph /  5.6 km/h 51 % 0.00 in /  0 mm
13:46 79.3 °F /  26.3 °C 59.6 °F /  15.3 °C 29.89 in /  1012.1 hPa SW 2.8 mph /  4.5 km/h 4.6 mph /  7.4 km/h 51 % 0.00 in /  0 mm
13:51 79.4 °F /  26.3 °C 61.3 °F /  16.3 °C 29.89 in /  1012.1 hPa WNW 1.9 mph /  3.1 km/h 3.5 mph /  5.6 km/h 54 % 0.00 in /  0 mm
13:56 79.7 °F /  26.5 °C 60.5 °F /  15.8 °C 29.88 in /  1011.7 hPa NNW 2.0 mph /  3.2 km/h 3.5 mph /  5.6 km/h 52 % 0.00 in /  0 mm
14:01 79.7 °F /  26.5 °C 59.4 °F /  15.2 °C 29.88 in /  1011.7 hPa WNW 0.2 mph /  0.3 km/h 4.6 mph /  7.4 km/h 50 % 0.00 in /  0 mm
14:06 80.0 °F /  26.7 °C 62.4 °F /  16.9 °C 29.88 in /  1011.7 hPa WSW 0.2 mph /  0.3 km/h 1.0 mph /  1.6 km/h 55 % 0.00 in /  0 mm
14:11 80.2 °F /  26.8 °C 61.0 °F /  16.1 °C 29.88 in /  1011.7 hPa WSW 0.6 mph /  1 km/h 3.5 mph /  5.6 km/h 52 % 0.00 in /  0 mm
14:21 80.4 °F /  26.9 °C 57.7 °F /  14.3 °C 29.88 in /  1011.7 hPa West 0.1 mph /  0.2 km/h 1.2 mph /  1.9 km/h 46 % 0.00 in /  0 mm
14:26 80.3 °F /  26.8 °C 60.5 °F /  15.8 °C 29.88 in /  1011.7 hPa NNE 2.0 mph /  3.2 km/h 4.0 mph /  6.4 km/h 51 % 0.00 in /  0 mm
14:31 80.0 °F /  26.7 °C 60.2 °F /  15.7 °C 29.87 in /  1011.4 hPa West 1.2 mph /  1.9 km/h 3.5 mph /  5.6 km/h 51 % 0.00 in /  0 mm
14:36 80.1 °F /  26.7 °C 60.3 °F /  15.7 °C 29.88 in /  1011.7 hPa WNW 3.0 mph /  4.8 km/h 4.0 mph /  6.4 km/h 51 % 0.00 in /  0 mm
14:41 80.2 °F /  26.8 °C 61.5 °F /  16.4 °C 29.88 in /  1011.7 hPa West 1.7 mph /  2.7 km/h 4.6 mph /  7.4 km/h 53 % 0.00 in /  0 mm
14:47 80.3 °F /  26.8 °C 60.5 °F /  15.8 °C 29.87 in /  1011.4 hPa WSW 3.1 mph /  5 km/h 4.6 mph /  7.4 km/h 51 % 0.00 in /  0 mm
14:52 80.3 °F /  26.8 °C 60.0 °F /  15.6 °C 29.88 in /  1011.7 hPa SW 2.9 mph /  4.7 km/h 6.0 mph /  9.7 km/h 50 % 0.00 in /  0 mm
14:57 80.4 °F /  26.9 °C 59.5 °F /  15.3 °C 29.88 in /  1011.7 hPa SW 2.0 mph /  3.2 km/h 4.6 mph /  7.4 km/h 49 % 0.00 in /  0 mm
15:02 80.5 °F /  26.9 °C 60.1 °F /  15.6 °C 29.88 in /  1011.7 hPa WSW 3.8 mph /  6.1 km/h 5.8 mph /  9.3 km/h 50 % 0.00 in /  0 mm
15:07 80.5 °F /  26.9 °C 59.6 °F /  15.3 °C 29.88 in /  1011.7 hPa West 1.4 mph /  2.3 km/h 2.3 mph /  3.7 km/h 49 % 0.00 in /  0 mm
15:12 80.6 °F /  27 °C 61.3 °F /  16.3 °C 29.88 in /  1011.7 hPa WNW 3.2 mph /  5.1 km/h 7.0 mph /  11.3 km/h 52 % 0.00 in /  0 mm
15:17 80.6 °F /  27 °C 60.2 °F /  15.7 °C 29.88 in /  1011.7 hPa WSW 4.0 mph /  6.4 km/h 5.8 mph /  9.3 km/h 50 % 0.00 in /  0 mm
15:22 80.6 °F /  27 °C 58.5 °F /  14.7 °C 29.88 in /  1011.7 hPa WSW 4.6 mph /  7.4 km/h 7.0 mph /  11.3 km/h 47 % 0.00 in /  0 mm
15:25 80.5 °F /  26.9 °C 59.6 °F /  15.3 °C 29.87 in /  1011.4 hPa West 4.4 mph /  7.1 km/h 6.9 mph /  11.1 km/h 49 % 0.00 in /  0 mm
15:30 80.5 °F /  26.9 °C 59.6 °F /  15.3 °C 29.87 in /  1011.4 hPa WSW 0.5 mph /  0.8 km/h 3.5 mph /  5.6 km/h 49 % 0.00 in /  0 mm
15:35 80.6 °F /  27 °C 59.7 °F /  15.4 °C 29.87 in /  1011.4 hPa WSW 5.0 mph /  8 km/h 6.9 mph /  11.1 km/h 49 % 0.00 in /  0 mm
15:40 80.6 °F /  27 °C 59.1 °F /  15.1 °C 29.87 in /  1011.4 hPa WSW 1.9 mph /  3.1 km/h 6.9 mph /  11.1 km/h 48 % 0.00 in /  0 mm
15:45 80.6 °F /  27 °C 59.7 °F /  15.4 °C 29.86 in /  1011.1 hPa West 1.8 mph /  2.9 km/h 3.5 mph /  5.6 km/h 49 % 0.00 in /  0 mm
15:50 80.7 °F /  27.1 °C 59.2 °F /  15.1 °C 29.86 in /  1011.1 hPa West 3.1 mph /  5 km/h 8.1 mph /  13 km/h 48 % 0.00 in /  0 mm
15:55 80.5 °F /  26.9 °C 59.0 °F /  15 °C 29.87 in /  1011.4 hPa South 3.6 mph /  5.8 km/h 4.6 mph /  7.4 km/h 48 % 0.00 in /  0 mm
16:00 80.4 °F /  26.9 °C 58.9 °F /  14.9 °C 29.87 in /  1011.4 hPa WNW 1.5 mph /  2.4 km/h 5.0 mph /  8 km/h 48 % 0.00 in /  0 mm
16:05 80.3 °F /  26.8 °C 59.4 °F /  15.2 °C 29.86 in /  1011.1 hPa SW 1.9 mph /  3.1 km/h 5.8 mph /  9.3 km/h 49 % 0.00 in /  0 mm
16:10 80.3 °F /  26.8 °C 60.0 °F /  15.6 °C 29.86 in /  1011.1 hPa SSW 2.8 mph /  4.5 km/h 4.6 mph /  7.4 km/h 50 % 0.00 in /  0 mm
16:15 80.3 °F /  26.8 °C 59.4 °F /  15.2 °C 29.86 in /  1011.1 hPa West 3.2 mph /  5.1 km/h 3.5 mph /  5.6 km/h 49 % 0.00 in /  0 mm
16:20 80.4 °F /  26.9 °C 59.5 °F /  15.3 °C 29.86 in /  1011.1 hPa West 1.0 mph /  1.6 km/h 3.0 mph /  4.8 km/h 49 % 0.00 in /  0 mm
16:25 80.5 °F /  26.9 °C 59.6 °F /  15.3 °C 29.86 in /  1011.1 hPa SW 1.8 mph /  2.9 km/h 3.5 mph /  5.6 km/h 49 % 0.00 in /  0 mm
16:30 80.4 °F /  26.9 °C 58.9 °F /  14.9 °C 29.86 in /  1011.1 hPa WNW 0.9 mph /  1.4 km/h 6.9 mph /  11.1 km/h 48 % 0.00 in /  0 mm
16:35 80.3 °F /  26.8 °C 59.4 °F /  15.2 °C 29.86 in /  1011.1 hPa SW 2.6 mph /  4.2 km/h 3.5 mph /  5.6 km/h 49 % 0.00 in /  0 mm
16:41 80.3 °F /  26.8 °C 58.8 °F /  14.9 °C 29.86 in /  1011.1 hPa WSW 3.0 mph /  4.8 km/h 8.0 mph /  12.9 km/h 48 % 0.00 in /  0 mm
16:46 80.1 °F /  26.7 °C 59.8 °F /  15.4 °C 29.86 in /  1011.1 hPa Calm   3.0 mph /  4.8 km/h 50 % 0.00 in /  0 mm
16:51 80.0 °F /  26.7 °C 59.7 °F /  15.4 °C 29.86 in /  1011.1 hPa WSW 2.0 mph /  3.2 km/h 5.0 mph /  8 km/h 50 % 0.00 in /  0 mm
16:56 79.8 °F /  26.6 °C 58.4 °F /  14.7 °C 29.86 in /  1011.1 hPa WSW 3.0 mph /  4.8 km/h 5.0 mph /  8 km/h 48 % 0.00 in /  0 mm
17:01 79.7 °F /  26.5 °C 58.3 °F /  14.6 °C 29.86 in /  1011.1 hPa SW 2.4 mph /  3.9 km/h 3.5 mph /  5.6 km/h 48 % 0.00 in /  0 mm
17:06 79.6 °F /  26.4 °C 57.6 °F /  14.2 °C 29.86 in /  1011.1 hPa WNW 2.8 mph /  4.5 km/h 5.0 mph /  8 km/h 47 % 0.00 in /  0 mm
17:11 79.4 °F /  26.3 °C 57.4 °F /  14.1 °C 29.86 in /  1011.1 hPa SW 3.3 mph /  5.3 km/h 9.2 mph /  14.8 km/h 47 % 0.00 in /  0 mm
17:16 79.3 °F /  26.3 °C 56.7 °F /  13.7 °C 29.86 in /  1011.1 hPa SW 4.0 mph /  6.4 km/h 8.1 mph /  13 km/h 46 % 0.00 in /  0 mm
17:21 79.1 °F /  26.2 °C 57.1 °F /  13.9 °C 29.86 in /  1011.1 hPa WSW 2.9 mph /  4.7 km/h 6.9 mph /  11.1 km/h 47 % 0.00 in /  0 mm
17:26 78.9 °F /  26.1 °C 56.4 °F /  13.6 °C 29.86 in /  1011.1 hPa SW 2.6 mph /  4.2 km/h 6.9 mph /  11.1 km/h 46 % 0.00 in /  0 mm
17:31 78.8 °F /  26 °C 56.9 °F /  13.8 °C 29.86 in /  1011.1 hPa WSW 2.4 mph /  3.9 km/h 4.6 mph /  7.4 km/h 47 % 0.00 in /  0 mm
17:36 78.6 °F /  25.9 °C 56.7 °F /  13.7 °C 29.86 in /  1011.1 hPa West 2.6 mph /  4.2 km/h 3.5 mph /  5.6 km/h 47 % 0.00 in /  0 mm
17:41 78.5 °F /  25.8 °C 57.7 °F /  14.3 °C 29.86 in /  1011.1 hPa SSW 1.9 mph /  3.1 km/h 5.8 mph /  9.3 km/h 49 % 0.00 in /  0 mm
17:46 78.3 °F /  25.7 °C 55.8 °F /  13.2 °C 29.86 in /  1011.1 hPa SW 2.2 mph /  3.5 km/h 4.6 mph /  7.4 km/h 46 % 0.00 in /  0 mm
17:51 78.1 °F /  25.6 °C 56.8 °F /  13.8 °C 29.86 in /  1011.1 hPa SW 1.0 mph /  1.6 km/h 3.5 mph /  5.6 km/h 48 % 0.00 in /  0 mm
17:56 78.0 °F /  25.6 °C 56.1 °F /  13.4 °C 29.86 in /  1011.1 hPa WSW 0.1 mph /  0.2 km/h 2.3 mph /  3.7 km/h 47 % 0.00 in /  0 mm
18:01 77.8 °F /  25.4 °C 56.0 °F /  13.3 °C 29.86 in /  1011.1 hPa WSW 1.0 mph /  1.6 km/h 2.3 mph /  3.7 km/h 47 % 0.00 in /  0 mm
18:06 77.6 °F /  25.3 °C 55.8 °F /  13.2 °C 29.86 in /  1011.1 hPa WSW 0.3 mph /  0.5 km/h 1.2 mph /  1.9 km/h 47 % 0.00 in /  0 mm
18:16 77.1 °F /  25.1 °C 56.5 °F /  13.6 °C 29.86 in /  1011.1 hPa WSW 0.9 mph /  1.4 km/h 2.3 mph /  3.7 km/h 49 % 0.00 in /  0 mm
18:21 76.9 °F /  24.9 °C 56.8 °F /  13.8 °C 29.86 in /  1011.1 hPa WSW 0.5 mph /  0.8 km/h 2.0 mph /  3.2 km/h 50 % 0.00 in /  0 mm
18:26 76.6 °F /  24.8 °C 57.1 °F /  13.9 °C 29.86 in /  1011.1 hPa Calm   1.2 mph /  1.9 km/h 51 % 0.00 in /  0 mm
18:31 76.3 °F /  24.6 °C 57.9 °F /  14.4 °C 29.86 in /  1011.1 hPa Calm   1.2 mph /  1.9 km/h 53 % 0.00 in /  0 mm
18:36 76.0 °F /  24.4 °C 58.2 °F /  14.6 °C 29.86 in /  1011.1 hPa Calm     54 % 0.00 in /  0 mm
18:41 75.7 °F /  24.3 °C 58.9 °F /  14.9 °C 29.86 in /  1011.1 hPa Calm     56 % 0.00 in /  0 mm
18:46 75.4 °F /  24.1 °C 58.6 °F /  14.8 °C 29.86 in /  1011.1 hPa Calm     56 % 0.00 in /  0 mm
18:51 75.1 °F /  23.9 °C 59.3 °F /  15.2 °C 29.86 in /  1011.1 hPa Calm     58 % 0.00 in /  0 mm
18:56 74.7 °F /  23.7 °C 59.9 °F /  15.5 °C 29.86 in /  1011.1 hPa Calm     60 % 0.00 in /  0 mm
19:01 74.3 °F /  23.5 °C 60.4 °F /  15.8 °C 29.86 in /  1011.1 hPa Calm     62 % 0.00 in /  0 mm
19:06 73.9 °F /  23.3 °C 60.5 °F /  15.8 °C 29.86 in /  1011.1 hPa Calm     63 % 0.00 in /  0 mm
19:11 73.5 °F /  23.1 °C 60.6 °F /  15.9 °C 29.86 in /  1011.1 hPa Calm     64 % 0.00 in /  0 mm
19:21 72.6 °F /  22.6 °C 60.6 °F /  15.9 °C 29.86 in /  1011.1 hPa Calm     66 % 0.00 in /  0 mm
19:26 72.1 °F /  22.3 °C 60.1 °F /  15.6 °C 29.86 in /  1011.1 hPa Calm     66 % 0.00 in /  0 mm
19:31 71.8 °F /  22.1 °C 60.2 °F /  15.7 °C 29.86 in /  1011.1 hPa Calm     67 % 0.00 in /  0 mm
19:36 71.4 °F /  21.9 °C 60.3 °F /  15.7 °C 29.86 in /  1011.1 hPa Calm     68 % 0.00 in /  0 mm
19:41 71.0 °F /  21.7 °C 59.5 °F /  15.3 °C 29.86 in /  1011.1 hPa Calm     67 % 0.00 in /  0 mm
19:46 70.6 °F /  21.4 °C 58.7 °F /  14.8 °C 29.86 in /  1011.1 hPa WSW 0.1 mph /  0.2 km/h   66 % 0.00 in /  0 mm
19:51 70.3 °F /  21.3 °C 58.4 °F /  14.7 °C 29.86 in /  1011.1 hPa Calm     66 % 0.00 in /  0 mm
19:56 70.0 °F /  21.1 °C 58.5 °F /  14.7 °C 29.86 in /  1011.1 hPa Calm     67 % 0.00 in /  0 mm
20:02 69.7 °F /  20.9 °C 58.3 °F /  14.6 °C 29.86 in /  1011.1 hPa Calm     67 % 0.00 in /  0 mm
20:07 69.4 °F /  20.8 °C 58.8 °F /  14.9 °C 29.86 in /  1011.1 hPa Calm     69 % 0.00 in /  0 mm
20:12 69.0 °F /  20.6 °C 58.8 °F /  14.9 °C 29.86 in /  1011.1 hPa Calm     70 % 0.00 in /  0 mm
20:17 68.7 °F /  20.4 °C 58.9 °F /  14.9 °C 29.86 in /  1011.1 hPa Calm     71 % 0.00 in /  0 mm
20:22 68.5 °F /  20.3 °C 58.7 °F /  14.8 °C 29.86 in /  1011.1 hPa Calm     71 % 0.00 in /  0 mm
20:27 68.2 °F /  20.1 °C 58.8 °F /  14.9 °C 29.86 in /  1011.1 hPa Calm     72 % 0.00 in /  0 mm
20:32 67.9 °F /  19.9 °C 58.9 °F /  14.9 °C 29.86 in /  1011.1 hPa WSW 0.1 mph /  0.2 km/h 1.2 mph /  1.9 km/h 73 % 0.00 in /  0 mm
20:37 67.7 °F /  19.8 °C 58.7 °F /  14.8 °C 29.87 in /  1011.4 hPa WSW 0.1 mph /  0.2 km/h 1.2 mph /  1.9 km/h 73 % 0.00 in /  0 mm
20:42 67.5 °F /  19.7 °C 58.2 °F /  14.6 °C 29.87 in /  1011.4 hPa Calm     72 % 0.00 in /  0 mm
20:47 67.4 °F /  19.7 °C 58.4 °F /  14.7 °C 29.87 in /  1011.4 hPa Calm     73 % 0.00 in /  0 mm
20:52 67.1 °F /  19.5 °C 58.5 °F /  14.7 °C 29.87 in /  1011.4 hPa Calm     74 % 0.00 in /  0 mm
20:57 66.9 °F /  19.4 °C 58.3 °F /  14.6 °C 29.87 in /  1011.4 hPa Calm     74 % 0.00 in /  0 mm
21:02 66.7 °F /  19.3 °C 58.5 °F /  14.7 °C 29.87 in /  1011.4 hPa Calm     75 % 0.00 in /  0 mm
21:07 66.5 °F /  19.2 °C 58.3 °F /  14.6 °C 29.87 in /  1011.4 hPa Calm   1.0 mph /  1.6 km/h 75 % 0.00 in /  0 mm
21:12 66.3 °F /  19.1 °C 58.5 °F /  14.7 °C 29.87 in /  1011.4 hPa Calm   1.2 mph /  1.9 km/h 76 % 0.00 in /  0 mm
21:17 66.1 °F /  18.9 °C 58.3 °F /  14.6 °C 29.87 in /  1011.4 hPa WSW 0.1 mph /  0.2 km/h 1.2 mph /  1.9 km/h 76 % 0.00 in /  0 mm
21:22 66.0 °F /  18.9 °C 58.6 °F /  14.8 °C 29.87 in /  1011.4 hPa Calm     77 % 0.00 in /  0 mm
21:27 65.8 °F /  18.8 °C 58.4 °F /  14.7 °C 29.87 in /  1011.4 hPa WSW 0.1 mph /  0.2 km/h 1.2 mph /  1.9 km/h 77 % 0.00 in /  0 mm
21:32 65.7 °F /  18.7 °C 58.7 °F /  14.8 °C 29.87 in /  1011.4 hPa WSW 0.1 mph /  0.2 km/h 1.2 mph /  1.9 km/h 78 % 0.00 in /  0 mm
21:37 65.6 °F /  18.7 °C 58.6 °F /  14.8 °C 29.87 in /  1011.4 hPa WSW 0.2 mph /  0.3 km/h 1.2 mph /  1.9 km/h 78 % 0.00 in /  0 mm
21:42 65.5 °F /  18.6 °C 58.8 °F /  14.9 °C 29.87 in /  1011.4 hPa Calm     79 % 0.00 in /  0 mm
21:47 65.4 °F /  18.6 °C 59.1 °F /  15.1 °C 29.88 in /  1011.7 hPa Calm   1.2 mph /  1.9 km/h 80 % 0.00 in /  0 mm
21:52 65.3 °F /  18.5 °C 59.0 °F /  15 °C 29.88 in /  1011.7 hPa Calm     80 % 0.00 in /  0 mm
21:57 65.1 °F /  18.4 °C 58.8 °F /  14.9 °C 29.88 in /  1011.7 hPa WSW 0.3 mph /  0.5 km/h 1.2 mph /  1.9 km/h 80 % 0.00 in /  0 mm
22:02 65.1 °F /  18.4 °C 59.1 °F /  15.1 °C 29.87 in /  1011.4 hPa WSW 1.6 mph /  2.6 km/h 4.6 mph /  7.4 km/h 81 % 0.00 in /  0 mm
22:08 65.0 °F /  18.3 °C 59.0 °F /  15 °C 29.88 in /  1011.7 hPa WSW 0.3 mph /  0.5 km/h 2.3 mph /  3.7 km/h 81 % 0.00 in /  0 mm
22:13 64.9 °F /  18.3 °C 58.9 °F /  14.9 °C 29.88 in /  1011.7 hPa WSW 0.1 mph /  0.2 km/h 1.2 mph /  1.9 km/h 81 % 0.00 in /  0 mm
22:18 64.8 °F /  18.2 °C 58.8 °F /  14.9 °C 29.88 in /  1011.7 hPa WSW 0.1 mph /  0.2 km/h 1.2 mph /  1.9 km/h 81 % 0.00 in /  0 mm
22:23 64.8 °F /  18.2 °C 58.8 °F /  14.9 °C 29.88 in /  1011.7 hPa Calm   1.2 mph /  1.9 km/h 81 % 0.00 in /  0 mm
22:28 64.7 °F /  18.2 °C 58.7 °F /  14.8 °C 29.88 in /  1011.7 hPa WSW 1.2 mph /  1.9 km/h 3.5 mph /  5.6 km/h 81 % 0.00 in /  0 mm
22:33 64.7 °F /  18.2 °C 58.7 °F /  14.8 °C 29.87 in /  1011.4 hPa WSW 0.1 mph /  0.2 km/h 1.2 mph /  1.9 km/h 81 % 0.00 in /  0 mm
22:38 64.7 °F /  18.2 °C 59.1 °F /  15.1 °C 29.87 in /  1011.4 hPa SW 0.5 mph /  0.8 km/h 3.5 mph /  5.6 km/h 82 % 0.00 in /  0 mm
22:43 64.7 °F /  18.2 °C 59.1 °F /  15.1 °C 29.87 in /  1011.4 hPa SW 0.5 mph /  0.8 km/h 2.3 mph /  3.7 km/h 82 % 0.00 in /  0 mm
22:48 64.7 °F /  18.2 °C 59.1 °F /  15.1 °C 29.87 in /  1011.4 hPa SW 0.7 mph /  1.1 km/h 2.3 mph /  3.7 km/h 82 % 0.00 in /  0 mm
22:53 64.7 °F /  18.2 °C 59.1 °F /  15.1 °C 29.87 in /  1011.4 hPa SW 0.2 mph /  0.3 km/h 1.2 mph /  1.9 km/h 82 % 0.00 in /  0 mm
22:58 64.7 °F /  18.2 °C 59.1 °F /  15.1 °C 29.87 in /  1011.4 hPa SW 0.7 mph /  1.1 km/h 3.0 mph /  4.8 km/h 82 % 0.00 in /  0 mm
23:03 64.7 °F /  18.2 °C 59.1 °F /  15.1 °C 29.87 in /  1011.4 hPa WSW 0.4 mph /  0.6 km/h 2.3 mph /  3.7 km/h 82 % 0.00 in /  0 mm
23:08 64.8 °F /  18.2 °C 59.2 °F /  15.1 °C 29.87 in /  1011.4 hPa Calm     82 % 0.00 in /  0 mm
23:14 64.9 °F /  18.3 °C 59.3 °F /  15.2 °C 29.87 in /  1011.4 hPa Calm     82 % 0.00 in /  0 mm
23:19 64.9 °F /  18.3 °C 58.9 °F /  14.9 °C 29.87 in /  1011.4 hPa Calm   1.2 mph /  1.9 km/h 81 % 0.00 in /  0 mm
23:21 64.9 °F /  18.3 °C 58.9 °F /  14.9 °C 29.87 in /  1011.4 hPa Calm     81 % 0.00 in /  0 mm
23:26 64.9 °F /  18.3 °C 58.9 °F /  14.9 °C 29.87 in /  1011.4 hPa Calm   1.2 mph /  1.9 km/h 81 % 0.00 in /  0 mm
23:32 64.9 °F /  18.3 °C 58.9 °F /  14.9 °C 29.87 in /  1011.4 hPa SW 0.1 mph /  0.2 km/h 1.2 mph /  1.9 km/h 81 % 0.00 in /  0 mm
23:34 65.0 °F /  18.3 °C 59.0 °F /  15 °C 29.87 in /  1011.4 hPa West 0.9 mph /  1.4 km/h 2.3 mph /  3.7 km/h 81 % 0.00 in /  0 mm
23:39 65.0 °F /  18.3 °C 59.0 °F /  15 °C 29.87 in /  1011.4 hPa Calm     81 % 0.00 in /  0 mm
23:44 65.0 °F /  18.3 °C 59.0 °F /  15 °C 29.87 in /  1011.4 hPa Calm     81 % 0.00 in /  0 mm
23:49 65.0 °F /  18.3 °C 59.0 °F /  15 °C 29.87 in /  1011.4 hPa WSW 0.1 mph /  0.2 km/h 1.2 mph /  1.9 km/h 81 % 0.00 in /  0 mm
23:54 65.0 °F /  18.3 °C 59.0 °F /  15 °C 29.86 in /  1011.1 hPa SW 0.1 mph /  0.2 km/h 1.2 mph /  1.9 km/h 81 % 0.00 in /  0 mm
23:59 65.1 °F /  18.4 °C 59.1 °F /  15.1 °C 29.86 in /  1011.1 hPa SW 1.2 mph /  1.9 km/h 3.5 mph /  5.6 km/h 81 % 0.00 in /  0 mm
Crab Meadow Weather
Compliments of Weather Underground - 3 mb

Script developed by  Jim McMurry - jmcmurry@mwt.net Adapted for the template by  Wim van der Kuil - Leuven-Template.eu

Astronomy: Mercury can get as hot as 800 degrees and can be as cold as 300 degrees below zero.